createdAt,value
2023-03-17T00:00:21.727Z,99298.50
2023-03-17T00:02:24.556Z,99290.94
2023-03-17T00:04:27.954Z,99298.25
2023-03-17T00:06:32.384Z,99290.66
2023-03-17T00:08:36.167Z,99291.75
2023-03-17T00:10:39.238Z,99297.19
2023-03-17T00:12:41.763Z,99290.38
2023-03-17T00:14:46.457Z,99278.97
2023-03-17T00:16:52.971Z,99273.78
2023-03-17T00:18:57.717Z,99277.03
2023-03-17T00:21:00.190Z,99284.09
2023-03-17T00:23:04.819Z,99275.16
2023-03-17T00:25:24.030Z,99276.78
2023-03-17T00:27:26.499Z,99281.69
2023-03-17T00:29:28.990Z,99274.66
2023-03-17T00:31:32.867Z,99269.78
2023-03-17T00:33:37.269Z,99279.78
2023-03-17T00:35:41.061Z,99276.25
2023-03-17T00:37:44.226Z,99283.59
2023-03-17T00:39:46.694Z,99278.44
2023-03-17T00:41:49.234Z,99275.72
2023-03-17T00:43:51.743Z,99275.75
2023-03-17T00:45:55.181Z,99279.53
2023-03-17T00:47:57.779Z,99284.41
2023-03-17T00:50:00.281Z,99277.88
2023-03-17T00:52:03.101Z,99284.44
2023-03-17T00:54:05.765Z,99291.22
2023-03-17T00:56:19.966Z,99290.69
2023-03-17T00:58:28.987Z,99287.13
2023-03-17T01:00:31.818Z,99285.22
2023-03-17T01:02:34.923Z,99289.84
2023-03-17T01:04:37.753Z,99298.03
2023-03-17T01:06:40.477Z,99301.84
2023-03-17T01:08:44.891Z,99304.03
2023-03-17T01:10:48.057Z,99296.66
2023-03-17T01:12:51.684Z,99289.28
2023-03-17T01:14:54.763Z,99300.16
2023-03-17T01:16:57.283Z,99301.50
2023-03-17T01:19:00.261Z,99295.75
2023-03-17T01:21:02.993Z,99293.63
2023-03-17T01:23:05.575Z,99300.66
2023-03-17T01:25:08.756Z,99303.84
2023-03-17T01:27:11.783Z,99303.00
2023-03-17T01:29:15.057Z,99309.78
2023-03-17T01:31:18.607Z,99306.75
2023-03-17T01:33:21.281Z,99305.41
2023-03-17T01:35:26.552Z,99304.56
2023-03-17T01:37:29.075Z,99305.38
2023-03-17T01:39:31.585Z,99308.84
2023-03-17T01:41:35.425Z,99313.72
2023-03-17T01:43:38.585Z,99304.75
2023-03-17T01:46:15.010Z,99291.69
2023-03-17T01:48:18.857Z,99305.00
2023-03-17T01:50:21.442Z,99303.09
2023-03-17T01:52:23.954Z,99303.88
2023-03-17T01:54:46.649Z,99307.72
2023-03-17T01:56:52.432Z,99289.75
2023-03-17T01:58:56.909Z,99297.13
2023-03-17T02:00:59.691Z,99291.72
2023-03-17T02:03:03.087Z,99291.72
2023-03-17T02:05:08.534Z,99294.19
2023-03-17T02:07:12.676Z,99297.47
2023-03-17T02:09:15.914Z,99290.72
2023-03-17T02:11:19.376Z,99290.44
2023-03-17T02:13:22.239Z,99292.31
2023-03-17T02:15:35.741Z,99295.03
2023-03-17T02:17:38.609Z,99287.41
2023-03-17T02:19:42.597Z,99303.19
2023-03-17T02:21:50.084Z,99297.47
2023-03-17T02:23:52.857Z,99295.28
2023-03-17T02:25:55.646Z,99296.91
2023-03-17T02:28:02.374Z,99299.34
2023-03-17T02:30:07.706Z,99285.00
2023-03-17T02:32:10.320Z,99296.91
2023-03-17T02:34:13.057Z,99302.06
2023-03-17T02:36:16.421Z,99299.13
2023-03-17T02:38:18.984Z,99290.97
2023-03-17T02:40:22.203Z,99286.59
2023-03-17T02:42:24.857Z,99290.44
2023-03-17T02:44:27.895Z,99282.28
2023-03-17T02:46:30.454Z,99296.16
2023-03-17T02:48:36.673Z,99302.38
2023-03-17T02:50:39.230Z,99298.59
2023-03-17T02:52:42.065Z,99302.38
2023-03-17T02:54:44.560Z,99302.44
2023-03-17T02:56:47.092Z,99306.25
2023-03-17T02:58:49.617Z,99308.94
2023-03-17T03:00:52.113Z,99298.88
2023-03-17T03:02:54.926Z,99301.31
2023-03-17T03:04:57.548Z,99300.47
2023-03-17T03:07:00.510Z,99300.47
2023-03-17T03:09:03.965Z,99301.06
2023-03-17T03:11:06.885Z,99290.44
2023-03-17T03:13:09.444Z,99295.63
2023-03-17T03:15:12.138Z,99293.16
2023-03-17T03:17:15.385Z,99298.38
2023-03-17T03:19:18.648Z,99291.03
2023-03-17T03:21:22.237Z,99282.59
2023-03-17T03:23:24.799Z,99277.72
2023-03-17T03:25:27.363Z,99277.97
2023-03-17T03:27:29.870Z,99282.88
2023-03-17T03:29:32.421Z,99276.59
2023-03-17T03:31:35.277Z,99286.59
2023-03-17T03:33:37.731Z,99280.94
2023-03-17T03:35:40.983Z,99293.69
2023-03-17T03:37:43.654Z,99288.47
2023-03-17T03:39:46.311Z,99278.72
2023-03-17T03:41:48.792Z,99278.94
2023-03-17T03:43:52.334Z,99269.91
2023-03-17T03:45:54.866Z,99295.69
2023-03-17T03:47:57.480Z,99274.19
2023-03-17T03:50:00.234Z,99278.97
2023-03-17T03:52:02.722Z,99278.13
2023-03-17T03:54:05.319Z,99287.63
2023-03-17T03:56:08.281Z,99286.22
2023-03-17T03:58:11.480Z,99288.41
2023-03-17T04:00:14.490Z,99292.19
2023-03-17T04:02:17.335Z,99300.63
2023-03-17T04:04:19.934Z,99308.50
2023-03-17T04:06:22.467Z,99295.13
2023-03-17T04:08:25.787Z,99293.72
2023-03-17T04:10:28.475Z,99295.38
2023-03-17T04:12:31.514Z,99308.13
2023-03-17T04:14:34.245Z,99314.91
2023-03-17T04:16:37.286Z,99303.53
2023-03-17T04:18:39.934Z,99310.84
2023-03-17T04:20:42.767Z,99298.31
2023-03-17T04:22:45.695Z,99311.63
2023-03-17T04:24:48.235Z,99312.97
2023-03-17T04:26:50.733Z,99318.47
2023-03-17T04:28:53.275Z,99316.03
2023-03-17T04:30:56.455Z,99313.84
2023-03-17T04:32:59.066Z,99315.44
2023-03-17T04:35:01.782Z,99316.28
2023-03-17T04:37:05.525Z,99320.94
2023-03-17T04:39:08.263Z,99331.81
2023-03-17T04:41:11.722Z,99335.34
2023-03-17T04:43:14.164Z,99339.41
2023-03-17T04:45:17.347Z,99335.88
2023-03-17T04:47:19.901Z,99344.28
2023-03-17T04:49:22.776Z,99329.03
2023-03-17T04:51:25.855Z,99316.16
2023-03-17T04:53:28.798Z,99321.53
2023-03-17T04:55:31.654Z,99320.47
2023-03-17T04:57:34.936Z,99315.50
2023-03-17T04:59:37.353Z,99306.78
2023-03-17T05:01:39.874Z,99315.22
2023-03-17T05:03:42.410Z,99323.34
2023-03-17T05:05:44.904Z,99326.88
2023-03-17T05:07:47.772Z,99330.97
2023-03-17T05:09:50.396Z,99338.34
2023-03-17T05:11:52.984Z,99341.84
2023-03-17T05:13:57.131Z,99339.06
2023-03-17T05:16:01.003Z,99350.16
2023-03-17T05:18:05.020Z,99349.09
2023-03-17T05:20:08.666Z,99347.97
2023-03-17T05:22:11.743Z,99335.41
2023-03-17T05:24:14.288Z,99349.75
2023-03-17T05:26:17.242Z,99335.88
2023-03-17T05:28:21.101Z,99347.81
2023-03-17T05:30:24.049Z,99343.09
2023-03-17T05:32:26.581Z,99339.56
2023-03-17T05:34:29.068Z,99341.41
2023-03-17T05:36:32.378Z,99336.19
2023-03-17T05:38:34.878Z,99347.53
2023-03-17T05:40:37.522Z,99363.59
2023-03-17T05:42:40.060Z,99345.00
2023-03-17T05:44:42.530Z,99356.34
2023-03-17T05:46:45.072Z,99349.66
2023-03-17T05:48:47.809Z,99341.91
2023-03-17T05:50:50.461Z,99338.03
2023-03-17T05:52:53.681Z,99340.16
2023-03-17T05:54:56.160Z,99343.91
2023-03-17T05:56:58.777Z,99356.69
2023-03-17T05:59:02.475Z,99369.13
2023-03-17T06:01:06.096Z,99367.97
2023-03-17T06:03:08.946Z,99362.34
2023-03-17T06:05:11.689Z,99363.16
2023-03-17T06:07:14.503Z,99356.91
2023-03-17T06:09:17.038Z,99351.59
2023-03-17T06:11:21.646Z,99354.91
2023-03-17T06:13:24.205Z,99349.56
2023-03-17T06:15:27.014Z,99322.91
2023-03-17T06:17:29.714Z,99351.50
2023-03-17T06:19:32.489Z,99333.53
2023-03-17T06:21:35.402Z,99314.88
2023-03-17T06:23:37.911Z,99325.28
2023-03-17T06:25:40.528Z,99328.59
2023-03-17T06:27:43.360Z,99335.50
2023-03-17T06:29:47.743Z,99315.22
2023-03-17T06:31:51.501Z,99318.34
2023-03-17T06:33:53.961Z,99324.09
2023-03-17T06:35:58.751Z,99333.03
2023-03-17T06:38:01.427Z,99315.13
2023-03-17T06:40:05.969Z,99295.81
2023-03-17T06:42:08.702Z,99325.75
2023-03-17T06:44:11.229Z,99355.41
2023-03-17T06:46:13.947Z,99379.91
2023-03-17T06:48:16.567Z,99373.13
2023-03-17T06:50:19.242Z,99381.22
2023-03-17T06:52:21.859Z,99354.47
2023-03-17T06:54:25.554Z,99370.84
2023-03-17T06:56:30.519Z,99374.78
2023-03-17T06:58:34.639Z,99344.75
2023-03-17T07:00:38.500Z,99341.59
2023-03-17T07:02:41.465Z,99359.13
2023-03-17T07:04:44.130Z,99322.81
2023-03-17T07:06:46.714Z,99320.78
2023-03-17T07:08:50.965Z,99299.66
2023-03-17T07:10:57.417Z,99294.78
2023-03-17T07:13:00.118Z,99313.22
2023-03-17T07:15:03.619Z,99309.47
2023-03-17T07:17:06.939Z,99370.63
2023-03-17T07:19:09.979Z,99377.41
2023-03-17T07:21:12.791Z,99380.94
2023-03-17T07:23:19.232Z,99372.09
2023-03-17T07:25:22.594Z,99364.91
2023-03-17T07:27:26.703Z,99343.97
2023-03-17T07:29:29.387Z,99330.19
2023-03-17T07:31:32.122Z,99319.84
2023-03-17T07:33:34.844Z,99337.72
2023-03-17T07:35:37.573Z,99360.13
2023-03-17T07:37:40.150Z,99351.59
2023-03-17T07:39:42.773Z,99350.00
2023-03-17T07:41:47.077Z,99311.03
2023-03-17T07:43:49.817Z,99309.88
2023-03-17T07:45:53.006Z,99292.75
2023-03-17T07:47:55.807Z,99287.09
2023-03-17T07:49:58.320Z,99301.72
2023-03-17T07:52:01.433Z,99317.13
2023-03-17T07:54:04.824Z,99343.47
2023-03-17T07:56:08.133Z,99341.13
2023-03-17T07:58:10.740Z,99306.69
2023-03-17T08:00:13.952Z,99306.59
2023-03-17T08:02:18.370Z,99346.25
2023-03-17T08:04:21.162Z,99386.47
2023-03-17T08:06:25.513Z,99386.16
2023-03-17T08:08:28.446Z,99333.97
2023-03-17T08:10:31.330Z,99342.63
2023-03-17T08:12:35.440Z,99363.38
2023-03-17T08:14:38.022Z,99361.19
2023-03-17T08:16:41.455Z,99368.78
2023-03-17T08:18:44.165Z,99382.19
2023-03-17T08:20:46.618Z,99390.41
2023-03-17T08:22:49.146Z,99376.31
2023-03-17T08:24:52.102Z,99370.91
2023-03-17T08:26:54.643Z,99389.78
2023-03-17T08:28:57.237Z,99381.66
2023-03-17T08:31:11.102Z,99355.44
2023-03-17T08:33:15.452Z,99361.91
2023-03-17T08:35:18.679Z,99387.34
2023-03-17T08:37:22.381Z,99371.50
2023-03-17T08:39:25.490Z,99337.69
2023-03-17T08:41:28.645Z,99328.31
2023-03-17T08:43:31.415Z,99338.28
2023-03-17T08:45:34.471Z,99351.66
2023-03-17T08:47:38.420Z,99362.63
2023-03-17T08:49:41.266Z,99362.13
2023-03-17T08:51:45.015Z,99383.75
2023-03-17T08:53:47.546Z,99386.25
2023-03-17T08:55:50.127Z,99382.72
2023-03-17T08:57:53.066Z,99402.41
2023-03-17T08:59:56.024Z,99403.22
2023-03-17T09:01:58.578Z,99411.16
2023-03-17T09:04:01.915Z,99414.88
2023-03-17T09:06:06.956Z,99422.16
2023-03-17T09:08:10.668Z,99421.53
2023-03-17T09:10:14.995Z,99415.84
2023-03-17T09:12:17.824Z,99416.03
2023-03-17T09:14:20.774Z,99398.94
2023-03-17T09:16:24.197Z,99403.13
2023-03-17T09:18:27.370Z,99420.94
2023-03-17T09:20:30.402Z,99416.91
2023-03-17T09:22:33.019Z,99405.75
2023-03-17T09:24:35.794Z,99396.38
2023-03-17T09:26:38.344Z,99400.56
2023-03-17T09:28:40.956Z,99400.88
2023-03-17T09:30:43.598Z,99396.38
2023-03-17T09:32:46.210Z,99392.47
2023-03-17T09:34:51.432Z,99395.53
2023-03-17T09:36:54.820Z,99387.94
2023-03-17T09:38:57.409Z,99388.59
2023-03-17T09:41:20.282Z,99394.91
2023-03-17T09:43:31.932Z,99389.72
2023-03-17T09:45:40.596Z,99393.28
2023-03-17T09:48:12.109Z,99397.34
2023-03-17T09:50:22.852Z,99397.81
2023-03-17T09:52:29.314Z,99396.38
2023-03-17T09:54:36.475Z,99386.84
2023-03-17T09:56:44.374Z,99382.31
2023-03-17T09:59:04.892Z,99385.38
2023-03-17T10:01:10.470Z,99381.16
2023-03-17T10:03:14.005Z,99378.59
2023-03-17T10:05:27.651Z,99392.19
2023-03-17T10:07:42.935Z,99376.81
2023-03-17T10:10:01.465Z,99384.41
2023-03-17T10:12:27.751Z,99400.53
2023-03-17T10:14:56.596Z,99395.69
2023-03-17T10:17:15.613Z,99385.81
2023-03-17T10:19:32.790Z,99381.66
2023-03-17T10:21:42.421Z,99371.31
2023-03-17T10:23:46.879Z,99371.00
2023-03-17T10:25:49.593Z,99374.38
2023-03-17T10:28:21.012Z,99376.00
2023-03-17T10:30:24.359Z,99385.06
2023-03-17T10:32:35.691Z,99374.41
2023-03-17T10:34:43.718Z,99383.94
2023-03-17T10:36:56.551Z,99378.25
2023-03-17T10:39:00.187Z,99385.19
2023-03-17T10:41:14.803Z,99384.53
2023-03-17T10:43:20.822Z,99368.69
2023-03-17T10:45:32.642Z,99375.66
2023-03-17T10:47:40.050Z,99373.53
2023-03-17T10:49:44.533Z,99355.59
2023-03-17T10:51:47.279Z,99350.47
2023-03-17T10:53:53.350Z,99351.09
2023-03-17T10:56:08.008Z,99363.34
2023-03-17T10:58:10.660Z,99373.25
2023-03-17T11:00:23.437Z,99353.53
2023-03-17T11:02:43.386Z,99357.72
2023-03-17T11:04:47.197Z,99350.44
2023-03-17T11:06:51.592Z,99335.78
2023-03-17T11:08:55.769Z,99336.56
2023-03-17T11:10:58.514Z,99345.78
2023-03-17T11:13:02.291Z,99364.38
2023-03-17T11:15:07.719Z,99375.50
2023-03-17T11:17:19.856Z,99373.75
2023-03-17T11:19:43.548Z,99379.06
2023-03-17T11:21:54.860Z,99382.31
2023-03-17T11:24:16.129Z,99387.00
2023-03-17T11:26:42.649Z,99390.72
2023-03-17T11:28:54.712Z,99387.50
2023-03-17T11:31:00.302Z,99389.91
2023-03-17T11:33:02.734Z,99387.59
2023-03-17T11:35:23.381Z,99391.63
2023-03-17T11:37:37.978Z,99391.50
2023-03-17T11:40:07.898Z,99382.41
2023-03-17T11:42:36.578Z,99381.13
2023-03-17T11:45:10.026Z,99371.44
2023-03-17T11:47:27.061Z,99374.31
2023-03-17T11:49:40.157Z,99359.31
2023-03-17T11:51:54.671Z,99365.44
2023-03-17T11:54:06.119Z,99378.47
2023-03-17T11:56:25.662Z,99379.41
2023-03-17T11:58:35.732Z,99370.84
2023-03-17T12:01:00.570Z,99365.13
2023-03-17T12:03:27.745Z,99350.91
2023-03-17T12:05:31.732Z,99348.03
2023-03-17T12:07:42.183Z,99353.00
2023-03-17T12:10:06.131Z,99353.94
2023-03-17T12:12:11.293Z,99359.97
2023-03-17T12:14:19.530Z,99362.91
2023-03-17T12:16:34.130Z,99362.19
2023-03-17T12:18:46.662Z,99365.16
2023-03-17T12:20:58.401Z,99370.44
2023-03-17T12:23:30.193Z,99367.84
2023-03-17T12:26:17.840Z,99380.22
2023-03-17T12:28:27.253Z,99384.94
2023-03-17T12:31:01.376Z,99398.78
2023-03-17T12:33:27.888Z,99397.56
2023-03-17T12:35:38.826Z,99394.38
2023-03-17T12:37:42.108Z,99403.13
2023-03-17T12:40:04.675Z,99399.66
2023-03-17T12:42:22.118Z,99400.59
2023-03-17T12:44:39.753Z,99402.88
2023-03-17T12:46:57.576Z,99354.50
2023-03-17T12:49:17.594Z,99351.97
2023-03-17T12:51:32.354Z,99369.00
2023-03-17T12:53:40.075Z,99367.91
2023-03-17T12:55:47.441Z,99378.91
2023-03-17T12:58:26.515Z,99390.34
2023-03-17T13:00:34.156Z,99402.25
2023-03-17T13:02:38.802Z,99417.19
2023-03-17T13:04:50.105Z,99452.38
2023-03-17T13:07:05.528Z,99413.66
2023-03-17T13:09:31.621Z,99404.84
2023-03-17T13:11:36.914Z,99422.09
2023-03-17T13:14:26.633Z,99402.31
2023-03-17T13:16:39.562Z,99412.38
2023-03-17T13:18:41.993Z,99413.47
2023-03-17T13:21:12.766Z,99389.97
2023-03-17T13:23:17.633Z,99386.75
2023-03-17T13:25:33.862Z,99393.28
2023-03-17T13:27:39.281Z,99393.03
2023-03-17T13:29:45.699Z,99398.22
2023-03-17T13:31:48.243Z,99415.34
2023-03-17T13:33:55.008Z,99402.81
2023-03-17T13:36:06.554Z,99398.22
2023-03-17T13:38:34.841Z,99404.25
2023-03-17T13:40:52.650Z,99403.66
2023-03-17T13:43:07.521Z,99404.97
2023-03-17T13:45:44.048Z,99398.94
2023-03-17T13:47:47.848Z,99390.56
2023-03-17T13:49:53.271Z,99394.75
2023-03-17T13:52:02.021Z,99414.09
2023-03-17T13:54:30.922Z,99423.31
2023-03-17T13:56:42.241Z,99419.75
2023-03-17T13:59:02.947Z,99423.56
2023-03-17T14:01:10.461Z,99422.69
2023-03-17T14:03:20.122Z,99422.97
2023-03-17T14:05:27.293Z,99424.84
2023-03-17T14:07:39.639Z,99417.00
2023-03-17T14:09:43.663Z,99420.25
2023-03-17T14:11:48.363Z,99416.41
2023-03-17T14:14:15.210Z,99419.97
2023-03-17T14:16:32.184Z,99426.03
2023-03-17T14:18:38.059Z,99428.50
2023-03-17T14:20:40.913Z,99418.75
2023-03-17T14:22:52.707Z,99417.19
2023-03-17T14:24:59.619Z,99418.28
2023-03-17T14:27:08.262Z,99411.81
2023-03-17T14:29:16.272Z,99417.28
2023-03-17T14:31:24.478Z,99420.28
2023-03-17T14:33:29.795Z,99413.22
2023-03-17T14:35:43.630Z,99416.22
2023-03-17T14:37:46.167Z,99429.25
2023-03-17T14:39:52.844Z,99436.59
2023-03-17T14:42:03.937Z,99445.03
2023-03-17T14:44:09.519Z,99463.22
2023-03-17T14:46:22.365Z,99452.00
2023-03-17T14:48:32.672Z,99437.34
2023-03-17T14:50:35.428Z,99453.63
2023-03-17T14:52:41.250Z,99449.00
2023-03-17T14:54:44.214Z,99453.63
2023-03-17T14:56:52.124Z,99464.25
2023-03-17T14:58:54.583Z,99463.19
2023-03-17T15:01:05.235Z,99459.13
2023-03-17T15:03:20.390Z,99459.13
2023-03-17T15:05:42.871Z,99442.84
2023-03-17T15:07:45.452Z,99437.19
2023-03-17T15:10:04.036Z,99433.13
2023-03-17T15:12:22.277Z,99432.34
2023-03-17T15:14:38.892Z,99438.34
2023-03-17T15:16:53.224Z,99454.66
2023-03-17T15:19:23.826Z,99463.63
2023-03-17T15:21:40.976Z,99482.09
2023-03-17T15:23:43.503Z,99482.34
2023-03-17T15:25:50.622Z,99497.56
2023-03-17T15:27:53.547Z,99495.09
2023-03-17T15:29:56.649Z,99500.81
2023-03-17T15:32:21.732Z,99503.22
2023-03-17T15:34:24.246Z,99506.25
2023-03-17T15:36:32.685Z,99519.00
2023-03-17T15:38:39.048Z,99522.81
2023-03-17T15:40:41.731Z,99521.44
2023-03-17T15:42:45.538Z,99520.09
2023-03-17T15:44:48.320Z,99522.00
2023-03-17T15:46:51.257Z,99515.75
2023-03-17T15:48:53.838Z,99524.44
2023-03-17T15:50:58.326Z,99513.88
2023-03-17T15:53:00.878Z,99523.38
2023-03-17T15:55:14.247Z,99510.91
2023-03-17T15:57:17.368Z,99504.94
2023-03-17T15:59:19.836Z,99495.69
2023-03-17T16:01:22.451Z,99487.31
2023-03-17T16:03:30.594Z,99491.09
2023-03-17T16:05:35.200Z,99492.19
2023-03-17T16:07:37.863Z,99485.13
2023-03-17T16:09:40.325Z,99498.41
2023-03-17T16:11:43.444Z,99512.50
2023-03-17T16:13:47.324Z,99521.19
2023-03-17T16:15:59.160Z,99529.31
2023-03-17T16:18:04.350Z,99528.22
2023-03-17T16:20:07.728Z,99528.75
2023-03-17T16:22:41.988Z,99534.97
2023-03-17T16:24:44.821Z,99551.47
2023-03-17T16:26:47.657Z,99531.94
2023-03-17T16:28:50.304Z,99547.63
2023-03-17T16:30:54.708Z,99551.69
2023-03-17T16:33:02.941Z,99550.28
2023-03-17T16:35:18.105Z,99549.44
2023-03-17T16:37:20.821Z,99552.13
2023-03-17T16:39:23.833Z,99558.31
2023-03-17T16:41:27.742Z,99549.88
2023-03-17T16:43:33.575Z,99565.53
2023-03-17T16:45:36.201Z,99552.22
2023-03-17T16:47:38.729Z,99554.63
2023-03-17T16:49:41.227Z,99568.97
2023-03-17T16:51:43.970Z,99562.72
2023-03-17T16:53:47.183Z,99559.66
2023-03-17T16:55:52.225Z,99559.66
2023-03-17T16:57:57.743Z,99565.84
2023-03-17T17:00:00.371Z,99568.00
2023-03-17T17:02:03.031Z,99572.59
2023-03-17T17:04:09.995Z,99573.38
2023-03-17T17:06:14.543Z,99588.50
2023-03-17T17:08:17.080Z,99603.41
2023-03-17T17:10:22.196Z,99607.75
2023-03-17T17:12:24.754Z,99589.53
2023-03-17T17:14:27.234Z,99607.16
2023-03-17T17:16:33.130Z,99603.06
2023-03-17T17:18:38.032Z,99605.50
2023-03-17T17:20:41.980Z,99596.56
2023-03-17T17:22:44.724Z,99604.94
2023-03-17T17:24:47.185Z,99625.78
2023-03-17T17:26:49.904Z,99617.63
2023-03-17T17:28:52.620Z,99629.50
2023-03-17T17:30:55.281Z,99633.03
2023-03-17T17:32:59.752Z,99633.53
2023-03-17T17:35:02.598Z,99624.38
2023-03-17T17:37:05.921Z,99623.56
2023-03-17T17:39:11.268Z,99628.69
2023-03-17T17:41:14.342Z,99633.00
2023-03-17T17:43:18.325Z,99640.28
2023-03-17T17:45:21.120Z,99638.34
2023-03-17T17:47:23.767Z,99643.75
2023-03-17T17:49:26.345Z,99636.72
2023-03-17T17:51:28.916Z,99652.13
2023-03-17T17:53:31.747Z,99642.66
2023-03-17T17:55:34.819Z,99646.97
2023-03-17T17:57:37.371Z,99651.00
2023-03-17T17:59:40.425Z,99666.91
2023-03-17T18:01:43.016Z,99683.16
2023-03-17T18:03:46.191Z,99686.41
2023-03-17T18:05:48.658Z,99683.16
2023-03-17T18:07:51.447Z,99678.31
2023-03-17T18:09:53.901Z,99679.38
2023-03-17T18:11:56.552Z,99686.69
2023-03-17T18:13:59.215Z,99686.75
2023-03-17T18:16:02.031Z,99694.81
2023-03-17T18:18:05.682Z,99695.28
2023-03-17T18:20:10.708Z,99700.22
2023-03-17T18:22:13.194Z,99699.06
2023-03-17T18:24:16.512Z,99685.22
2023-03-17T18:26:20.327Z,99695.00
2023-03-17T18:28:23.071Z,99695.81
2023-03-17T18:30:28.527Z,99697.94
2023-03-17T18:32:31.680Z,99701.72
2023-03-17T18:34:43.539Z,99693.81
2023-03-17T18:36:48.065Z,99698.34
2023-03-17T18:38:51.671Z,99705.03
2023-03-17T18:40:54.193Z,99716.69
2023-03-17T18:42:57.043Z,99720.16
2023-03-17T18:44:59.641Z,99724.19
2023-03-17T18:47:02.906Z,99727.94
2023-03-17T18:49:07.111Z,99729.59
2023-03-17T18:51:09.906Z,99730.66
2023-03-17T18:53:13.586Z,99740.59
2023-03-17T18:55:17.329Z,99723.28
2023-03-17T18:57:19.847Z,99725.13
2023-03-17T18:59:22.399Z,99728.38
2023-03-17T19:01:26.019Z,99740.53
2023-03-17T19:03:32.250Z,99743.47
2023-03-17T19:05:39.504Z,99752.16
2023-03-17T19:07:42.412Z,99745.94
2023-03-17T19:09:45.238Z,99747.31
2023-03-17T19:11:47.887Z,99751.81
2023-03-17T19:13:52.632Z,99757.56
2023-03-17T19:15:56.001Z,99748.28
2023-03-17T19:17:58.526Z,99754.78
2023-03-17T19:20:01.834Z,99758.22
2023-03-17T19:22:06.317Z,99754.50
2023-03-17T19:24:11.227Z,99764.75
2023-03-17T19:26:14.692Z,99740.13
2023-03-17T19:28:18.244Z,99756.91
2023-03-17T19:30:21.145Z,99762.31
2023-03-17T19:32:24.645Z,99768.78
2023-03-17T19:34:27.506Z,99767.09
2023-03-17T19:36:38.625Z,99790.00
2023-03-17T19:38:41.928Z,99787.31
2023-03-17T19:40:44.398Z,99771.00
2023-03-17T19:42:46.905Z,99792.81
2023-03-17T19:44:49.819Z,99776.84
2023-03-17T19:46:52.358Z,99778.72
2023-03-17T19:48:56.784Z,99778.38
2023-03-17T19:51:00.246Z,99794.13
2023-03-17T19:53:02.935Z,99801.31
2023-03-17T19:55:08.246Z,99789.75
2023-03-17T19:57:12.380Z,99796.25
2023-03-17T19:59:15.573Z,99801.53
2023-03-17T20:01:18.133Z,99799.69
2023-03-17T20:03:20.742Z,99802.13
2023-03-17T20:05:23.266Z,99803.44
2023-03-17T20:07:26.172Z,99818.09
2023-03-17T20:09:28.812Z,99811.06
2023-03-17T20:11:37.342Z,99818.91
2023-03-17T20:13:41.996Z,99817.53
2023-03-17T20:15:45.052Z,99823.72
2023-03-17T20:17:48.522Z,99824.00
2023-03-17T20:19:51.466Z,99825.38
2023-03-17T20:21:54.160Z,99818.81
2023-03-17T20:23:56.978Z,99822.34
2023-03-17T20:25:59.840Z,99830.22
2023-03-17T20:28:02.919Z,99823.41
2023-03-17T20:30:08.522Z,99825.84
2023-03-17T20:32:12.227Z,99833.50
2023-03-17T20:34:15.343Z,99839.94
2023-03-17T20:36:17.901Z,99842.06
2023-03-17T20:38:21.482Z,99833.97
2023-03-17T20:40:25.741Z,99855.91
2023-03-17T20:42:28.358Z,99847.00
2023-03-17T20:44:30.957Z,99852.13
2023-03-17T20:46:33.511Z,99849.94
2023-03-17T20:48:37.277Z,99855.34
2023-03-17T20:50:41.102Z,99859.13
2023-03-17T20:52:43.838Z,99872.28
2023-03-17T20:54:46.326Z,99872.94
2023-03-17T20:56:52.473Z,99880.25
2023-03-17T20:58:56.348Z,99875.34
2023-03-17T21:00:58.956Z,99919.59
2023-03-17T21:03:02.320Z,99898.34
2023-03-17T21:05:05.476Z,99887.44
2023-03-17T21:07:08.363Z,99903.16
2023-03-17T21:09:10.994Z,99896.38
2023-03-17T21:11:19.781Z,99893.09
2023-03-17T21:13:22.262Z,99910.09
2023-03-17T21:15:24.858Z,99912.22
2023-03-17T21:17:27.524Z,99921.91
2023-03-17T21:19:30.044Z,99917.53
2023-03-17T21:21:32.694Z,99911.91
2023-03-17T21:23:35.560Z,99919.19
2023-03-17T21:25:39.110Z,99923.19
2023-03-17T21:27:41.857Z,99919.91
2023-03-17T21:29:44.426Z,99934.25
2023-03-17T21:31:47.157Z,99921.19
2023-03-17T21:33:50.748Z,99929.41
2023-03-17T21:35:53.586Z,99937.25
2023-03-17T21:37:57.371Z,99932.44
2023-03-17T21:39:59.900Z,99931.28
2023-03-17T21:42:02.482Z,99927.44
2023-03-17T21:44:06.481Z,99936.34
2023-03-17T21:46:09.060Z,99924.47
2023-03-17T21:48:11.570Z,99938.47
2023-03-17T21:50:16.416Z,99940.44
2023-03-17T21:52:20.995Z,99937.97
2023-03-17T21:54:24.530Z,99945.50
2023-03-17T21:56:27.570Z,99947.97
2023-03-17T21:58:30.053Z,99945.50
2023-03-17T22:00:42.661Z,99948.13
2023-03-17T22:02:47.167Z,99945.66
2023-03-17T22:04:49.756Z,99943.28
2023-03-17T22:06:52.581Z,99949.28
2023-03-17T22:08:55.727Z,99949.78
2023-03-17T22:10:58.355Z,99948.69
2023-03-17T22:13:00.868Z,99954.69
2023-03-17T22:15:04.570Z,99960.91
2023-03-17T22:17:07.281Z,99959.50
2023-03-17T22:19:10.481Z,99972.19
2023-03-17T22:21:13.088Z,99962.47
2023-03-17T22:23:15.566Z,99969.50
2023-03-17T22:25:21.157Z,99964.41
2023-03-17T22:27:25.510Z,99969.41
2023-03-17T22:29:27.988Z,99969.03
2023-03-17T22:31:30.790Z,99974.53
2023-03-17T22:33:33.644Z,99977.72
2023-03-17T22:35:38.053Z,99983.94
2023-03-17T22:37:41.559Z,99983.63
2023-03-17T22:39:44.032Z,99978.34
2023-03-17T22:41:46.535Z,99985.16
2023-03-17T22:43:49.396Z,99988.06
2023-03-17T22:45:51.988Z,100000.03
2023-03-17T22:47:55.524Z,99990.22
2023-03-17T22:49:57.996Z,99997.13
2023-03-17T22:52:00.598Z,99990.56
2023-03-17T22:54:03.719Z,100009.38
2023-03-17T22:56:07.462Z,100014.53
2023-03-17T22:58:10.665Z,100005.59
2023-03-17T23:00:16.814Z,100005.25
2023-03-17T23:02:19.385Z,100010.66
2023-03-17T23:04:22.097Z,100017.09
2023-03-17T23:06:25.247Z,100013.00
2023-03-17T23:08:29.625Z,100018.16
2023-03-17T23:10:33.722Z,100017.81
2023-03-17T23:12:36.557Z,100021.56
2023-03-17T23:14:39.362Z,100032.59
2023-03-17T23:16:41.965Z,100025.78
2023-03-17T23:18:46.808Z,100031.19
2023-03-17T23:20:50.757Z,100032.84
2023-03-17T23:22:53.294Z,100034.00
2023-03-17T23:24:57.556Z,100028.06
2023-03-17T23:27:00.089Z,100039.66
2023-03-17T23:29:05.166Z,100047.28
2023-03-17T23:31:08.282Z,100041.41
2023-03-17T23:33:11.164Z,100048.34
2023-03-17T23:35:14.344Z,100052.91
2023-03-17T23:37:17.231Z,100048.09
2023-03-17T23:39:19.793Z,100051.03
2023-03-17T23:41:22.860Z,100059.25
2023-03-17T23:43:26.155Z,100070.16
2023-03-17T23:45:28.880Z,100069.47
2023-03-17T23:47:31.807Z,100078.38
2023-03-17T23:49:34.278Z,100082.47
2023-03-17T23:51:36.865Z,100079.44
2023-03-17T23:53:39.838Z,100080.38
2023-03-17T23:55:42.376Z,100082.03
2023-03-17T23:57:45.297Z,100093.84
2023-03-17T23:59:47.728Z,100087.97
